Time;durP1;ratioP1;P1;durP2;ratioP2;P2;SDS_P1;SDS_P2;PMS_P1;PMS_P2;Temp;Humidity;BMP_temperature;BMP_pressure;BME280_temperature;BME280_humidity;BME280_pressure;Samples;Min_cycle;Max_cycle;Signal;HPM_P1;HPM_P2
2021/07/05 00:00:22;;;;;;;4.45;2.60;;;15.20;99.90;;;;;;4992114;28;20034;-80
2021/07/05 00:02:47;;;;;;;4.47;2.72;;;15.30;99.90;;;;;;4992328;28;20034;-79
2021/07/05 00:05:14;;;;;;;2.50;2.13;;;15.20;99.90;;;;;;4991722;28;20072;-80
2021/07/05 00:07:42;;;;;;;8.68;2.30;;;15.20;99.90;;;;;;4992872;28;20030;-79
2021/07/05 00:10:09;;;;;;;3.92;2.25;;;15.10;99.90;;;;;;4992791;28;20022;-80
2021/07/05 00:12:35;;;;;;;4.72;2.35;;;15.20;99.90;;;;;;4991717;28;20508;-80
2021/07/05 00:15:03;;;;;;;5.00;1.75;;;15.20;99.90;;;;;;4992101;28;20106;-80
2021/07/05 00:17:29;;;;;;;4.10;2.53;;;15.20;99.90;;;;;;4992728;28;20451;-80
2021/07/05 00:19:57;;;;;;;8.13;2.38;;;15.10;99.90;;;;;;4992576;28;20070;-79
2021/07/05 00:22:23;;;;;;;3.90;2.22;;;15.10;99.90;;;;;;4992476;28;20070;-79
2021/07/05 00:24:49;;;;;;;3.50;2.08;;;14.90;99.90;;;;;;4992649;28;20018;-80
2021/07/05 00:27:14;;;;;;;5.78;1.83;;;14.90;99.90;;;;;;4992377;28;20034;-80
2021/07/05 00:29:40;;;;;;;8.02;2.22;;;15.00;99.90;;;;;;4990135;28;20026;-80
2021/07/05 00:32:06;;;;;;;6.65;2.15;;;14.90;99.90;;;;;;4994190;28;20445;-80
2021/07/05 00:34:32;;;;;;;5.65;2.75;;;14.90;99.90;;;;;;4995762;28;20026;-80
2021/07/05 00:36:57;;;;;;;4.10;1.85;;;14.90;99.90;;;;;;4996103;28;20509;-80
2021/07/05 00:39:23;;;;;;;4.32;2.22;;;14.80;99.90;;;;;;5011166;28;20031;-80
2021/07/05 00:41:49;;;;;;;2.50;1.77;;;14.90;99.90;;;;;;4994568;28;20038;-80
2021/07/05 00:44:15;;;;;;;3.03;2.40;;;14.90;99.90;;;;;;4996303;28;20023;-80
2021/07/05 00:46:40;;;;;;;4.85;1.90;;;14.90;99.90;;;;;;4995072;28;20360;-80
2021/07/05 00:49:06;;;;;;;5.18;1.67;;;14.80;99.90;;;;;;4995018;28;20034;-80
2021/07/05 00:51:32;;;;;;;4.20;1.65;;;14.70;99.90;;;;;;4995863;28;20030;-80
2021/07/05 00:53:58;;;;;;;3.20;1.75;;;14.70;99.90;;;;;;4995376;28;20025;-80
2021/07/05 00:56:24;;;;;;;4.25;2.17;;;14.70;99.90;;;;;;4994795;28;20214;-80
2021/07/05 00:58:51;;;;;;;7.60;1.92;;;14.70;99.90;;;;;;4995396;28;20065;-80
2021/07/05 01:01:17;;;;;;;2.15;1.95;;;14.70;99.90;;;;;;4995332;28;20034;-80
2021/07/05 01:03:43;;;;;;;4.75;2.05;;;14.50;99.90;;;;;;4995627;28;20117;-80
2021/07/05 01:06:09;;;;;;;4.20;1.52;;;14.40;99.90;;;;;;4995019;28;20030;-80
2021/07/05 01:08:34;;;;;;;7.90;1.83;;;14.30;99.90;;;;;;4994686;28;20520;-80
2021/07/05 01:11:00;;;;;;;10.10;1.65;;;14.30;99.90;;;;;;4994443;28;20031;-80
2021/07/05 01:13:26;;;;;;;4.50;2.35;;;14.40;99.90;;;;;;4995090;28;20402;-80
2021/07/05 01:15:52;;;;;;;3.72;1.52;;;14.40;99.90;;;;;;4995410;28;20070;-79
2021/07/05 01:18:18;;;;;;;6.28;2.00;;;14.30;99.90;;;;;;4995421;28;20255;-79
2021/07/05 01:20:44;;;;;;;3.90;2.03;;;14.30;99.90;;;;;;4995350;28;20046;-79
2021/07/05 01:23:11;;;;;;;4.10;2.42;;;14.40;99.90;;;;;;4994712;28;20084;-81
2021/07/05 01:25:38;;;;;;;2.20;1.83;;;14.50;99.90;;;;;;4994109;28;20046;-81
2021/07/05 01:28:06;;;;;;;3.28;1.63;;;14.60;99.90;;;;;;4994518;28;20074;-81
2021/07/05 01:30:32;;;;;;;2.10;1.20;;;14.60;99.90;;;;;;4994188;28;20033;-82
2021/07/05 01:33:03;;;;;;;4.13;1.50;;;14.40;99.90;;;;;;4993991;28;20030;-81
2021/07/05 01:35:29;;;;;;;8.95;1.42;;;14.40;99.90;;;;;;4993904;28;20061;-82
2021/07/05 01:37:56;;;;;;;11.05;2.22;;;14.40;99.90;;;;;;4994546;28;20109;-82
2021/07/05 01:40:21;;;;;;;8.15;1.90;;;14.40;99.90;;;;;;4993585;28;20035;-82
2021/07/05 01:42:52;;;;;;;2.80;1.67;;;14.20;99.90;;;;;;4994054;28;20031;-82
2021/07/05 01:45:26;;;;;;;4.28;1.90;;;14.20;99.90;;;;;;5005256;28;20050;-82
2021/07/05 01:47:52;;;;;;;4.85;1.70;;;14.20;99.90;;;;;;4991943;28;20030;-82
2021/07/05 01:50:19;;;;;;;3.33;2.05;;;14.20;99.90;;;;;;4993158;28;20038;-82
2021/07/05 01:52:45;;;;;;;3.10;2.28;;;14.30;99.90;;;;;;4994659;28;20023;-82
2021/07/05 01:55:11;;;;;;;4.75;1.80;;;14.30;99.90;;;;;;4993376;28;20034;-82
2021/07/05 01:57:38;;;;;;;1.60;1.40;;;14.30;99.90;;;;;;4994338;28;20041;-82
2021/07/05 02:00:15;;;;;;;9.65;2.03;;;14.30;99.90;;;;;;4994077;28;20030;-82
2021/07/05 02:02:42;;;;;;;3.75;1.30;;;14.20;99.90;;;;;;4993209;28;20030;-81
2021/07/05 02:05:11;;;;;;;4.65;1.95;;;14.20;99.90;;;;;;4994340;28;20025;-82
2021/07/05 02:07:38;;;;;;;3.17;1.85;;;14.20;99.90;;;;;;4993808;28;20125;-81
2021/07/05 02:10:11;;;;;;;2.55;1.88;;;14.30;99.90;;;;;;4994129;28;20041;-82
2021/07/05 02:12:38;;;;;;;2.15;1.63;;;14.20;99.90;;;;;;4993760;28;20073;-82
2021/07/05 02:15:07;;;;;;;2.90;1.50;;;14.20;99.90;;;;;;4993968;28;20038;-82
2021/07/05 02:17:34;;;;;;;7.70;1.43;;;14.20;99.90;;;;;;4993486;28;20041;-82
2021/07/05 02:20:00;;;;;;;5.18;1.65;;;14.20;99.90;;;;;;4994102;28;20079;-81
2021/07/05 02:22:26;;;;;;;7.47;1.38;;;14.00;99.90;;;;;;4993362;28;20034;-81
2021/07/05 02:24:51;;;;;;;14.45;1.90;;;14.00;99.90;;;;;;4993831;28;20029;-81
2021/07/05 02:27:17;;;;;;;5.25;1.30;;;14.00;99.90;;;;;;4993851;28;20401;-81
2021/07/05 02:29:43;;;;;;;2.97;1.30;;;14.00;99.90;;;;;;4993877;28;20058;-81
2021/07/05 02:32:09;;;;;;;8.73;2.30;;;14.00;99.90;;;;;;4993786;28;20548;-82
2021/07/05 02:34:35;;;;;;;2.70;1.70;;;14.00;99.90;;;;;;4993889;28;20035;-82
2021/07/05 02:37:00;;;;;;;5.40;2.15;;;14.10;99.90;;;;;;4993643;28;20415;-81
2021/07/05 02:39:26;;;;;;;3.83;2.10;;;14.10;99.90;;;;;;4993663;28;20448;-81
2021/07/05 02:41:52;;;;;;;5.30;1.77;;;14.20;99.90;;;;;;4993050;28;20398;-81
2021/07/05 02:44:18;;;;;;;3.90;1.65;;;14.30;99.90;;;;;;4993127;28;20150;-81
2021/07/05 02:46:44;;;;;;;6.10;1.77;;;14.20;99.90;;;;;;4993610;28;20410;-81
2021/07/05 02:49:10;;;;;;;4.65;2.17;;;14.20;99.90;;;;;;4992962;28;20029;-81
2021/07/05 02:51:36;;;;;;;12.60;1.90;;;14.10;99.90;;;;;;5008622;28;20030;-81
2021/07/05 02:54:01;;;;;;;12.57;1.70;;;14.20;99.90;;;;;;5008260;28;20113;-82
2021/07/05 02:56:27;;;;;;;9.55;2.20;;;14.10;99.90;;;;;;4993130;28;20034;-81
2021/07/05 02:58:53;;;;;;;10.65;1.50;;;14.10;99.90;;;;;;4993299;28;20022;-81
2021/07/05 03:01:18;;;;;;;12.57;1.88;;;14.10;99.90;;;;;;4988123;28;20112;-82
2021/07/05 03:03:45;;;;;;;55.60;3.97;;;14.20;99.90;;;;;;4993553;28;20057;-81
2021/07/05 03:06:10;;;;;;;62.85;4.25;;;14.20;99.90;;;;;;4992963;28;20499;-81
2021/07/05 03:08:36;;;;;;;27.60;2.63;;;14.30;99.90;;;;;;4991853;28;20025;-81
2021/07/05 03:11:03;;;;;;;37.55;3.33;;;14.20;99.90;;;;;;4992597;28;20109;-82
2021/07/05 03:13:28;;;;;;;58.92;3.08;;;14.20;99.90;;;;;;4993185;28;20022;-82
2021/07/05 03:15:55;;;;;;;63.10;3.45;;;14.10;99.90;;;;;;4993362;28;20045;-82
2021/07/05 03:18:21;;;;;;;40.63;3.80;;;14.00;99.90;;;;;;4992391;28;20026;-81
2021/07/05 03:20:50;;;;;;;31.20;2.60;;;14.00;99.90;;;;;;4992549;28;20117;-81
2021/07/05 03:23:18;;;;;;;48.75;2.70;;;13.90;99.90;;;;;;4992950;28;20442;-81
2021/07/05 03:25:46;;;;;;;44.10;3.10;;;13.90;99.90;;;;;;4993063;28;20042;-81
2021/07/05 03:28:14;;;;;;;65.28;3.30;;;13.90;99.90;;;;;;4993123;28;20089;-81
2021/07/05 03:30:43;;;;;;;45.85;2.90;;;13.90;99.90;;;;;;4991623;28;20034;-82
2021/07/05 03:33:08;;;;;;;22.83;2.28;;;13.90;99.90;;;;;;4992109;28;20075;-81
2021/07/05 03:35:36;;;;;;;30.73;2.28;;;14.00;99.90;;;;;;4991893;28;20531;-81
2021/07/05 03:38:03;;;;;;;31.50;3.00;;;13.90;99.90;;;;;;4993086;28;20541;-81
2021/07/05 03:40:31;;;;;;;11.05;2.15;;;13.80;99.90;;;;;;4991286;28;20038;-81
2021/07/05 03:42:58;;;;;;;19.23;1.98;;;13.80;99.90;;;;;;4992590;28;20487;-81
2021/07/05 03:45:27;;;;;;;15.27;2.08;;;13.70;99.90;;;;;;4990200;28;20709;-81
2021/07/05 03:47:53;;;;;;;16.00;1.95;;;13.70;99.90;;;;;;4992692;28;20056;-82
2021/07/05 03:50:20;;;;;;;13.70;1.95;;;13.60;99.90;;;;;;4989495;28;20034;-81
2021/07/05 03:52:46;;;;;;;8.52;1.52;;;13.50;99.90;;;;;;4992182;28;20027;-82
2021/07/05 03:55:15;;;;;;;9.70;1.55;;;13.60;99.90;;;;;;4991793;28;20110;-81
2021/07/05 03:57:41;;;;;;;8.48;1.65;;;13.60;99.90;;;;;;4992386;28;20410;-81
2021/07/05 04:00:11;;;;;;;12.60;1.48;;;13.60;99.90;;;;;;4992020;28;20104;-81
2021/07/05 04:02:37;;;;;;;12.27;1.45;;;13.60;99.90;;;;;;4990619;28;20523;-81
2021/07/05 04:05:04;;;;;;;11.73;1.70;;;13.50;99.90;;;;;;5006559;28;20041;-81
2021/07/05 04:07:30;;;;;;;5.10;1.60;;;13.50;99.90;;;;;;4994908;28;20022;-81
2021/07/05 04:09:57;;;;;;;6.68;1.40;;;13.50;99.90;;;;;;4996174;28;20035;-81
2021/07/05 04:12:23;;;;;;;15.20;1.77;;;13.40;99.90;;;;;;4995248;28;20026;-81
2021/07/05 04:14:50;;;;;;;7.18;1.52;;;13.50;99.90;;;;;;5010957;28;20042;-81
2021/07/05 04:17:17;;;;;;;6.45;1.85;;;13.60;99.90;;;;;;4996252;28;20097;-82
2021/07/05 04:19:45;;;;;;;5.45;1.05;;;13.40;99.90;;;;;;4994579;28;20505;-81
2021/07/05 04:22:16;;;;;;;1.65;1.20;;;13.40;99.90;;;;;;4996595;28;20045;-81
2021/07/05 04:24:43;;;;;;;1.60;1.50;;;13.50;99.90;;;;;;4995379;28;20030;-82
2021/07/05 04:27:10;;;;;;;2.60;0.93;;;13.50;99.90;;;;;;4995820;28;20382;-82
2021/07/05 04:29:37;;;;;;;1.35;0.90;;;13.60;99.90;;;;;;4996054;28;20394;-82
2021/07/05 04:32:04;;;;;;;1.45;1.05;;;13.50;99.90;;;;;;4996188;28;20029;-82
2021/07/05 04:34:30;;;;;;;0.90;0.90;;;13.50;99.90;;;;;;4995440;28;20518;-81
2021/07/05 04:36:55;;;;;;;1.08;1.00;;;13.50;99.90;;;;;;4995981;28;20097;-81
2021/07/05 04:39:21;;;;;;;1.23;0.85;;;13.50;99.90;;;;;;4995147;28;20101;-82
2021/07/05 04:41:47;;;;;;;3.15;1.00;;;13.50;99.90;;;;;;4994901;28;20081;-82
2021/07/05 04:44:14;;;;;;;0.80;0.80;;;13.50;99.90;;;;;;4994482;28;20057;-82
2021/07/05 04:46:46;;;;;;;1.85;0.90;;;13.50;99.90;;;;;;4995301;28;20430;-82
2021/07/05 04:49:13;;;;;;;1.65;1.15;;;13.50;99.90;;;;;;4995634;28;20034;-82
2021/07/05 04:51:39;;;;;;;1.08;1.08;;;13.50;99.90;;;;;;4995297;28;20022;-82
2021/07/05 04:54:05;;;;;;;3.70;1.00;;;13.60;99.90;;;;;;4995556;28;20097;-81
2021/07/05 04:56:34;;;;;;;1.27;0.80;;;13.60;99.90;;;;;;4994504;28;20041;-81
2021/07/05 04:59:00;;;;;;;1.95;0.90;;;13.70;99.90;;;;;;4995869;28;20080;-82
2021/07/05 05:01:25;;;;;;;0.75;0.73;;;13.70;99.90;;;;;;4997688;28;20025;-81
2021/07/05 05:03:51;;;;;;;1.70;1.05;;;13.80;99.90;;;;;;4995018;28;20022;-82
2021/07/05 05:06:17;;;;;;;0.95;0.82;;;13.80;99.90;;;;;;4994980;28;20044;-82
2021/07/05 05:08:43;;;;;;;2.80;1.35;;;13.80;99.90;;;;;;4995477;28;20026;-82
2021/07/05 05:11:08;;;;;;;2.45;1.05;;;13.70;99.90;;;;;;4994776;28;20491;-82
2021/07/05 05:13:34;;;;;;;1.80;1.10;;;13.70;99.90;;;;;;4995462;28;20422;-82
2021/07/05 05:16:00;;;;;;;2.88;1.13;;;13.70;99.90;;;;;;4994262;28;20061;-82
2021/07/05 05:18:26;;;;;;;3.95;1.00;;;13.80;99.90;;;;;;4993905;28;20031;-82
2021/07/05 05:20:54;;;;;;;2.63;1.20;;;13.80;99.90;;;;;;5004750;28;20046;-82
2021/07/05 05:23:19;;;;;;;3.55;1.23;;;13.90;99.90;;;;;;4997009;28;20034;-82
2021/07/05 05:25:45;;;;;;;2.20;1.15;;;13.90;99.90;;;;;;4996544;28;20157;-82
2021/07/05 05:28:11;;;;;;;1.02;0.70;;;14.00;99.90;;;;;;5009935;28;20160;-82
2021/07/05 05:30:37;;;;;;;1.10;0.80;;;14.10;99.90;;;;;;4994662;28;20019;-81
2021/07/05 05:33:02;;;;;;;1.65;1.45;;;14.20;99.90;;;;;;4994963;28;20030;-81
2021/07/05 05:35:28;;;;;;;2.90;1.30;;;14.20;99.90;;;;;;4994752;28;20026;-81
2021/07/05 05:37:57;;;;;;;2.83;1.48;;;14.30;99.90;;;;;;4995118;28;20033;-82
2021/07/05 05:40:24;;;;;;;3.83;1.52;;;14.30;99.90;;;;;;4993571;28;20019;-82
2021/07/05 05:42:50;;;;;;;4.70;1.15;;;14.40;99.90;;;;;;4992764;28;20084;-81
2021/07/05 05:45:16;;;;;;;3.28;1.25;;;14.50;99.90;;;;;;4992867;28;20081;-82
2021/07/05 05:47:42;;;;;;;2.10;1.40;;;14.60;99.90;;;;;;4992638;28;20033;-82
2021/07/05 05:50:09;;;;;;;4.35;1.58;;;14.60;99.90;;;;;;4993264;28;20073;-81
2021/07/05 05:52:35;;;;;;;3.65;2.00;;;14.70;99.90;;;;;;4994020;28;20034;-81
2021/07/05 05:55:01;;;;;;;2.60;2.30;;;14.70;99.90;;;;;;4989860;28;20030;-82
2021/07/05 05:57:28;;;;;;;4.22;1.77;;;14.80;99.90;;;;;;4998534;28;20031;-82
2021/07/05 05:59:56;;;;;;;4.80;1.80;;;14.90;99.90;;;;;;4994225;28;20110;-82
2021/07/05 06:02:23;;;;;;;2.70;1.80;;;14.90;99.90;;;;;;4993962;28;20030;-82
2021/07/05 06:04:49;;;;;;;5.13;2.65;;;14.90;99.90;;;;;;4998066;28;20026;-81
2021/07/05 06:07:15;;;;;;;2.70;2.42;;;15.00;99.90;;;;;;4995149;28;20062;-82
2021/07/05 06:09:41;;;;;;;5.80;1.67;;;15.10;99.90;;;;;;4991209;28;20019;-82
2021/07/05 06:12:07;;;;;;;2.53;1.73;;;15.10;99.90;;;;;;4994206;28;20085;-81
2021/07/05 06:14:33;;;;;;;3.92;1.73;;;15.20;99.90;;;;;;5000729;28;20026;-81
2021/07/05 06:16:58;;;;;;;2.97;1.50;;;15.20;99.90;;;;;;4996259;28;20036;-82
2021/07/05 06:19:24;;;;;;;3.83;2.00;;;15.30;99.90;;;;;;4995620;28;20096;-82
2021/07/05 06:21:50;;;;;;;2.17;1.98;;;15.40;99.90;;;;;;4994667;28;20578;-82
2021/07/05 06:24:16;;;;;;;2.58;1.80;;;15.40;99.90;;;;;;4997460;28;20073;-82
2021/07/05 06:26:42;;;;;;;2.42;1.88;;;15.50;99.90;;;;;;4995060;28;20398;-82
2021/07/05 06:29:07;;;;;;;6.28;2.28;;;15.60;99.90;;;;;;4992666;28;20030;-81
2021/07/05 06:31:36;;;;;;;2.80;1.85;;;15.70;99.90;;;;;;4992621;28;20109;-82
2021/07/05 06:34:03;;;;;;;8.90;2.20;;;15.70;99.90;;;;;;4993078;28;20031;-81
2021/07/05 06:36:29;;;;;;;1.98;1.77;;;15.80;99.90;;;;;;4993745;28;20030;-81
2021/07/05 06:38:55;;;;;;;4.05;1.70;;;15.90;99.90;;;;;;4992520;28;20041;-80
2021/07/05 06:41:25;;;;;;;3.67;2.05;;;16.00;99.90;;;;;;4993693;28;20033;-80
2021/07/05 06:43:52;;;;;;;2.78;1.20;;;16.10;99.90;;;;;;4993484;28;20026;-80
2021/07/05 06:46:21;;;;;;;4.10;1.63;;;16.20;99.90;;;;;;4993555;28;20072;-80
2021/07/05 06:48:47;;;;;;;6.32;1.30;;;16.20;99.90;;;;;;4989554;28;20105;-80
2021/07/05 06:51:13;;;;;;;3.15;1.50;;;16.30;99.90;;;;;;4996322;28;20029;-78
2021/07/05 06:53:38;;;;;;;2.85;1.40;;;16.40;99.90;;;;;;5002161;28;20038;-80
2021/07/05 06:56:05;;;;;;;3.58;1.75;;;16.50;99.90;;;;;;5000632;28;20076;-79
2021/07/05 06:58:31;;;;;;;4.10;1.77;;;16.70;99.90;;;;;;4995157;28;20097;-79
2021/07/05 07:00:59;;;;;;;2.83;1.50;;;16.80;99.90;;;;;;5001056;28;20115;-80
2021/07/05 07:03:26;;;;;;;3.72;1.20;;;16.90;99.90;;;;;;4998097;28;20038;-80
2021/07/05 07:05:52;;;;;;;3.72;1.83;;;17.00;99.90;;;;;;5000601;28;20041;-80
2021/07/05 07:08:18;;;;;;;1.83;1.20;;;17.10;99.90;;;;;;4993604;28;20514;-80
2021/07/05 07:10:44;;;;;;;1.88;1.30;;;17.20;99.90;;;;;;4994089;28;20395;-80
2021/07/05 07:13:10;;;;;;;1.77;1.33;;;17.30;99.90;;;;;;4993846;28;20050;-80
2021/07/05 07:15:37;;;;;;;1.45;1.20;;;17.40;99.90;;;;;;4993330;28;20030;-80
2021/07/05 07:20:35;;;;;;;8.48;1.83;;;17.70;99.90;;;;;;4993068;28;20082;-78
2021/07/05 07:23:01;;;;;;;1.60;1.08;;;17.90;99.90;;;;;;4993902;28;20076;-79
2021/07/05 07:25:27;;;;;;;1.45;0.93;;;18.00;99.90;;;;;;4993943;28;20081;-79
2021/07/05 07:27:53;;;;;;;1.90;1.17;;;18.30;99.90;;;;;;4992542;28;20038;-79
2021/07/05 07:30:19;;;;;;;3.45;1.30;;;18.40;99.90;;;;;;5008297;28;20065;-79
2021/07/05 07:32:46;;;;;;;3.17;1.60;;;18.40;99.90;;;;;;4993658;28;20052;-79
2021/07/05 07:35:16;;;;;;;1.42;1.33;;;18.50;99.90;;;;;;4992750;28;20106;-79
2021/07/05 07:37:45;;;;;;;4.82;1.40;;;18.60;99.90;;;;;;4992330;28;20023;-79
2021/07/05 07:42:40;;;;;;;1.35;1.23;;;19.00;99.90;;;;;;4991467;28;20494;-79
2021/07/05 07:45:06;;;;;;;1.30;1.20;;;19.10;99.90;;;;;;4992547;28;20022;-79
2021/07/05 07:47:32;;;;;;;1.40;1.00;;;19.20;99.90;;;;;;4992937;28;20541;-79
2021/07/05 07:49:58;;;;;;;1.33;1.20;;;19.40;99.90;;;;;;4993074;28;20101;-78
2021/07/05 07:52:27;;;;;;;2.83;1.08;;;19.60;99.90;;;;;;4993102;28;20031;-79
2021/07/05 07:54:53;;;;;;;3.20;1.60;;;19.80;99.90;;;;;;4992949;28;20026;-79
2021/07/05 07:57:19;;;;;;;2.67;1.00;;;19.90;99.90;;;;;;4992742;28;20041;-79
2021/07/05 07:59:45;;;;;;;6.15;1.75;;;20.00;99.90;;;;;;4992956;28;20030;-79
2021/07/05 08:02:11;;;;;;;2.15;1.02;;;20.10;99.90;;;;;;4992889;28;20034;-79
2021/07/05 08:04:38;;;;;;;2.22;1.02;;;20.20;99.90;;;;;;4992869;28;20542;-79
2021/07/05 08:07:04;;;;;;;4.88;1.00;;;20.40;99.90;;;;;;4992940;28;20026;-79
2021/07/05 08:09:30;;;;;;;1.42;1.00;;;20.50;99.90;;;;;;4992741;28;20025;-79
2021/07/05 08:11:57;;;;;;;1.45;0.98;;;20.70;99.90;;;;;;4991179;28;20064;-79
2021/07/05 08:14:22;;;;;;;1.15;0.98;;;20.80;99.90;;;;;;4993285;28;20033;-79
2021/07/05 08:16:48;;;;;;;0.93;0.80;;;21.10;99.90;;;;;;4991726;28;20403;-79
2021/07/05 08:19:14;;;;;;;0.98;0.60;;;21.50;99.90;;;;;;4993283;28;20531;-79
2021/07/05 08:21:41;;;;;;;1.48;0.95;;;21.80;99.90;;;;;;4992773;28;20507;-79
2021/07/05 08:24:07;;;;;;;0.77;0.63;;;22.00;99.40;;;;;;4993420;28;20113;-79
2021/07/05 08:26:33;;;;;;;1.27;0.95;;;22.00;97.10;;;;;;4992656;28;20023;-79
2021/07/05 08:28:59;;;;;;;1.05;0.93;;;22.10;98.00;;;;;;4992847;28;20089;-79
2021/07/05 08:31:26;;;;;;;4.32;0.80;;;22.30;98.30;;;;;;4992168;28;20046;-79
2021/07/05 08:33:52;;;;;;;0.98;0.65;;;22.40;95.00;;;;;;4993380;28;20031;-79
2021/07/05 08:36:18;;;;;;;1.35;1.20;;;22.30;97.20;;;;;;4992346;28;20084;-79
2021/07/05 08:38:45;;;;;;;2.15;1.00;;;22.30;98.10;;;;;;4992433;28;20030;-78
2021/07/05 08:41:11;;;;;;;1.83;0.93;;;22.40;95.80;;;;;;4992274;28;20105;-78
2021/07/05 08:43:41;;;;;;;1.52;0.90;;;22.50;97.30;;;;;;4992429;28;20386;-79
2021/07/05 08:46:08;;;;;;;2.17;0.98;;;22.70;99.90;;;;;;4992488;28;20023;-79
2021/07/05 08:48:39;;;;;;;1.27;0.82;;;22.90;97.40;;;;;;4992485;28;20022;-79
2021/07/05 08:51:18;;;;;;;0.70;0.70;;;23.00;96.70;;;;;;4992738;28;20034;-78
2021/07/05 08:53:44;;;;;;;2.28;0.90;;;23.00;97.10;;;;;;4995000;28;20026;-78
2021/07/05 08:56:11;;;;;;;0.95;0.95;;;23.10;95.70;;;;;;4996267;28;20121;-78
2021/07/05 08:58:39;;;;;;;0.90;0.90;;;23.20;95.40;;;;;;4995957;28;20030;-79
2021/07/05 09:01:06;;;;;;;2.33;1.20;;;23.40;94.20;;;;;;4995988;28;20571;-79
2021/07/05 09:03:33;;;;;;;1.40;0.80;;;23.70;93.40;;;;;;4995768;28;20496;-79
2021/07/05 09:06:17;;;;;;;0.90;0.90;;;23.60;95.60;;;;;;4994592;28;20395;-79
2021/07/05 09:09:00;;;;;;;1.15;0.85;;;23.60;94.80;;;;;;4995450;28;20485;-78
2021/07/05 09:11:39;;;;;;;2.13;1.17;;;23.80;94.00;;;;;;4994314;28;20037;-79
2021/07/05 09:14:25;;;;;;;2.50;1.58;;;23.80;91.80;;;;;;4994545;28;20033;-79
2021/07/05 09:16:52;;;;;;;0.98;0.98;;;24.20;94.90;;;;;;4995534;28;20042;-79
2021/07/05 09:19:22;;;;;;;0.80;0.80;;;24.20;85.90;;;;;;4995672;28;20026;-79
2021/07/05 09:21:51;;;;;;;1.00;0.77;;;24.40;90.60;;;;;;4995383;28;20078;-79
2021/07/05 09:24:32;;;;;;;1.42;0.80;;;24.40;83.20;;;;;;4995112;28;20023;-79
2021/07/05 09:27:17;;;;;;;1.48;0.80;;;24.50;90.00;;;;;;4995591;28;20034;-79
2021/07/05 09:29:43;;;;;;;1.05;0.93;;;24.70;90.30;;;;;;4995708;28;20057;-79
2021/07/05 09:32:21;;;;;;;1.02;0.77;;;24.80;90.80;;;;;;4995376;28;20443;-79
2021/07/05 09:34:48;;;;;;;2.58;0.90;;;24.90;89.10;;;;;;5010750;28;20081;-78
2021/07/05 09:37:26;;;;;;;6.00;0.80;;;24.90;76.20;;;;;;4995009;28;20048;-79
2021/07/05 09:40:04;;;;;;;1.65;1.10;;;25.00;80.60;;;;;;4995400;28;20025;-79
2021/07/05 09:42:38;;;;;;;0.85;0.85;;;25.30;84.30;;;;;;4993311;28;20028;-79
2021/07/05 09:45:08;;;;;;;1.50;1.00;;;25.30;81.90;;;;;;4994236;28;20105;-79
2021/07/05 09:47:34;;;;;;;3.63;1.40;;;25.40;81.70;;;;;;4991489;28;20058;-79
2021/07/05 09:50:17;;;;;;;0.82;0.82;;;25.50;77.40;;;;;;4994230;28;20509;-79
2021/07/05 09:52:44;;;;;;;1.25;1.15;;;25.60;80.50;;;;;;4992060;28;20026;-79
2021/07/05 09:55:17;;;;;;;0.88;0.88;;;25.60;73.90;;;;;;4993966;28;20018;-79
2021/07/05 09:57:48;;;;;;;1.77;0.95;;;25.60;78.90;;;;;;4994034;28;20110;-79
2021/07/05 10:00:16;;;;;;;1.45;0.98;;;25.80;76.30;;;;;;5000884;28;20450;-79
2021/07/05 10:03:02;;;;;;;1.08;1.02;;;26.00;76.00;;;;;;4993862;28;20624;-79
2021/07/05 10:05:47;;;;;;;1.27;0.80;;;26.10;76.30;;;;;;4993034;28;20387;-79
2021/07/05 10:08:15;;;;;;;1.00;0.90;;;26.10;75.70;;;;;;4993587;28;20476;-79
2021/07/05 10:10:43;;;;;;;1.17;0.80;;;26.20;74.20;;;;;;4993620;28;20014;-80
2021/07/05 10:13:12;;;;;;;1.00;1.00;;;26.10;68.50;;;;;;4993613;28;20363;-79
2021/07/05 10:15:38;;;;;;;2.47;0.90;;;26.30;71.50;;;;;;4993557;28;20026;-79
2021/07/05 10:18:05;;;;;;;1.67;0.88;;;26.50;72.10;;;;;;4993782;28;20109;-79
2021/07/05 10:20:40;;;;;;;32.28;5.18;;;26.50;70.40;;;;;;4993175;28;20410;-79
2021/07/05 10:23:09;;;;;;;26.20;4.55;;;26.80;76.70;;;;;;4993418;28;20428;-79
2021/07/05 10:25:36;;;;;;;1.65;1.05;;;27.60;78.40;;;;;;4990904;28;20030;-77
2021/07/05 10:28:03;;;;;;;27.10;3.55;;;30.80;54.70;;;;;;4994948;28;20050;-81
2021/07/05 10:30:29;;;;;;;5.38;1.70;;;32.80;33.00;;;;;;5009784;28;20085;-85
2021/07/05 10:32:56;;;;;;;1.35;1.25;;;34.50;25.10;;;;;;4994215;28;20101;-85
2021/07/05 10:35:34;;;;;;;1.52;1.30;;;35.50;16.00;;;;;;4993227;28;20026;-85
2021/07/05 10:38:11;;;;;;;2.78;1.58;;;36.90;7.80;;;;;;4994112;28;20026;-85
2021/07/05 10:40:51;;;;;;;1.48;1.38;;;37.30;7.40;;;;;;4994188;28;20535;-85
2021/07/05 10:43:37;;;;;;;;;;;36.20;1.00;;;;;;4994663;28;20551;-85
2021/07/05 10:46:02;;;;;;;1.20;1.20;;;35.10;6.10;;;;;;4990160;28;19913;-85
2021/07/05 10:48:41;;;;;;;2.13;1.77;;;35.30;2.20;;;;;;4994354;28;20022;-85
2021/07/05 10:51:14;;;;;;;4.28;1.38;;;37.20;2.30;;;;;;4994455;28;20034;-86
2021/07/05 10:53:45;;;;;;;1.80;1.70;;;38.50;1.00;;;;;;4994288;28;20387;-86
2021/07/05 10:56:29;;;;;;;1.60;1.50;;;39.30;1.00;;;;;;4994431;28;20034;-84
2021/07/05 10:59:18;;;;;;;3.22;1.52;;;38.30;1.00;;;;;;4994098;28;20041;-86
2021/07/05 11:01:46;;;;;;;1.67;1.60;;;37.80;1.00;;;;;;4993602;28;20088;-86
2021/07/05 11:04:29;;;;;;;1.98;1.88;;;37.60;1.00;;;;;;4993716;28;20034;-85
2021/07/05 11:07:15;;;;;;;2.13;1.70;;;38.50;1.00;;;;;;4994250;28;20518;-85
2021/07/05 11:09:57;;;;;;;2.67;1.80;;;37.70;1.00;;;;;;4993781;28;20054;-83
2021/07/05 11:12:33;;;;;;;1.55;1.45;;;37.20;1.00;;;;;;4993808;28;20109;-84
2021/07/05 11:15:00;;;;;;;1.73;1.60;;;37.40;1.00;;;;;;4993325;28;20419;-84
2021/07/05 11:17:27;;;;;;;1.77;1.67;;;37.20;1.00;;;;;;4993047;28;20034;-84
2021/07/05 11:19:56;;;;;;;1.40;1.40;;;37.30;1.00;;;;;;4992452;28;20499;-85
2021/07/05 11:22:23;;;;;;;2.72;1.88;;;38.00;1.00;;;;;;4994044;28;20038;-85
2021/07/05 11:24:51;;;;;;;6.35;1.98;;;38.70;1.00;;;;;;4993205;28;20076;-85
2021/07/05 11:27:34;;;;;;;2.42;1.75;;;38.70;1.00;;;;;;4993537;28;20022;-84
2021/07/05 11:30:42;;;;;;;2.50;1.77;;;37.70;1.00;;;;;;4993753;28;20050;-84
2021/07/05 11:33:10;;;;;;;1.55;1.55;;;37.60;1.00;;;;;;4955226;28;20045;-85
2021/07/05 11:36:01;;;;;;;2.03;1.92;;;37.30;1.00;;;;;;4952588;28;20043;-84
2021/07/05 11:38:50;;;;;;;4.22;1.67;;;38.80;1.00;;;;;;4968303;28;20042;-84
2021/07/05 11:41:16;;;;;;;;;;;39.30;1.00;;;;;;4957497;28;20046;-83
2021/07/05 11:46:27;;;;;;;2.28;1.58;;;38.10;1.00;;;;;;4965356;28;20042;-84
2021/07/05 11:49:06;;;;;;;2.97;2.85;;;39.10;1.00;;;;;;4971526;28;20204;-84
2021/07/05 11:51:38;;;;;;;2.00;1.90;;;39.10;1.00;;;;;;4955527;28;20043;-85
